Charter Quote
Worldwide +1-877-727-2538 Call
Select Language Lang
SAFETY RELIABILITY EXPERIENCE

Private Jet Charter Services - Shanhaiguan Airport (ZBSH)

Paramount Business Jets offers private jet charter flights and luxury airliner charters to and from Shanhaiguan Airport.

AIRPORT INFORMATION
ICAOZBSH
IATASHP
LOCATIONQinhuangdao, China
FACILITY TYPEAIRPORT

At Paramount Business Jets you can hire chartered private jets to and from Shanhaiguan Airport with as little as 4 hours of notice. All flights booked via Paramount Business Jets are operated by certified direct air carriers that meet and exceed the FAA part 135 and 121 protocol or a foreign equivalent safety authority. Furthermore, Paramount Business Jets subscribes to ARGUS for their third party safety checks of operators, aircraft, and crews prior each and every flight to and from Shanhaiguan Airport and worldwide.

  • Quote a trip using Shanhaiguan Airport or call us 24/7 - 365 days a year at +1-877-727-2538.
Questions? Call +1-877-727-2538

METAR Weather Data at Shanhaiguan Airport, ZBSH, SHP

STATIONZBSH
OBSERVEDSat May 31, 13:00 UTC
NOWTue Jul 16, 04:00 UTC
AGE44919:00 hr ago
WINDcalm
VISIBILITY10 miles
METARZBSH 311300Z AUTO 00000MPS 6000 // ////// 19/16 Q1009

Call us on +1-877-727-2538 (24 Hours) to Hire a Private Jet or Get a Quick Quote.

Find Airports Near any Location

Processing
...